createdAt,value
2023-05-06T00:00:42.801Z,16.10
2023-05-06T00:03:10.297Z,16.30
2023-05-06T00:05:37.839Z,16.10
2023-05-06T00:08:06.046Z,15.90
2023-05-06T00:10:33.512Z,15.80
2023-05-06T00:13:00.947Z,16.10
2023-05-06T00:15:30.112Z,16.20
2023-05-06T00:17:59.014Z,16.30
2023-05-06T00:20:27.276Z,16.40
2023-05-06T00:22:55.108Z,16.50
2023-05-06T00:25:22.638Z,16.60
2023-05-06T00:27:50.007Z,16.60
2023-05-06T00:30:17.601Z,16.60
2023-05-06T00:32:45.023Z,16.50
2023-05-06T00:35:13.559Z,16.40
2023-05-06T00:37:41.119Z,16.20
2023-05-06T00:40:09.839Z,16.10
2023-05-06T00:42:37.410Z,16.30
2023-05-06T00:45:06.224Z,16.30
2023-05-06T00:47:33.879Z,16.20
2023-05-06T00:50:01.736Z,16.10
2023-05-06T00:52:29.205Z,16.00
2023-05-06T00:54:56.977Z,16.00
2023-05-06T00:57:24.777Z,16.00
2023-05-06T00:59:52.174Z,15.70
2023-05-06T01:02:19.590Z,15.40
2023-05-06T01:04:47.340Z,15.20
2023-05-06T01:07:41.697Z,15.30
2023-05-06T01:10:24.492Z,15.30
2023-05-06T01:12:55.306Z,15.40
2023-05-06T01:15:33.537Z,15.40
2023-05-06T01:18:08.124Z,15.00
2023-05-06T01:20:38.378Z,14.70
2023-05-06T01:23:12.759Z,14.60
2023-05-06T01:25:40.636Z,14.60
2023-05-06T01:28:11.411Z,14.90
2023-05-06T01:46:42.956Z,14.30
2023-05-06T01:49:12.689Z,14.10
2023-05-06T01:51:40.181Z,14.10
2023-05-06T02:55:57.019Z,14.10
2023-05-06T02:58:24.587Z,13.90
2023-05-06T03:00:52.220Z,13.80
2023-05-06T03:03:19.648Z,13.70
2023-05-06T11:26:59.922Z,25.10
2023-05-06T11:29:27.764Z,24.90
2023-05-06T11:31:55.290Z,24.80
2023-05-06T11:34:30.641Z,25.00
2023-05-06T11:37:03.947Z,25.00
2023-05-06T11:39:36.723Z,25.00
2023-05-06T11:42:08.556Z,24.60
2023-05-06T11:44:40.128Z,24.70
2023-05-06T11:47:09.344Z,24.80
2023-05-06T11:49:39.006Z,24.90
2023-05-06T11:52:07.728Z,25.40
2023-05-06T11:54:38.327Z,25.30
2023-05-06T11:59:34.385Z,25.30
2023-05-06T12:02:04.113Z,25.10
2023-05-06T12:04:39.823Z,24.60
2023-05-06T12:07:09.162Z,25.40
2023-05-06T12:09:42.403Z,25.70
2023-05-06T12:12:10.887Z,25.60
2023-05-06T12:14:39.554Z,25.40
2023-05-06T12:17:07.256Z,24.90
2023-05-06T12:19:36.089Z,25.20
2023-05-06T12:22:15.897Z,25.10
2023-05-06T12:24:43.512Z,25.40
2023-05-06T12:27:10.921Z,25.70
2023-05-06T12:29:38.423Z,25.20
2023-05-06T12:32:10.835Z,25.50
2023-05-06T12:34:41.625Z,25.30
2023-05-06T12:37:09.080Z,25.60
2023-05-06T12:39:38.321Z,25.90
2023-05-06T12:42:06.660Z,26.00
2023-05-06T12:44:39.038Z,25.70
2023-05-06T12:47:08.307Z,26.00
2023-05-06T12:50:08.114Z,25.90
2023-05-06T12:52:44.581Z,26.10
2023-05-06T12:55:11.945Z,25.70
2023-05-06T12:57:39.277Z,25.60
2023-05-06T13:00:07.524Z,25.40
2023-05-06T13:02:34.963Z,25.40
2023-05-06T13:05:03.033Z,25.70
2023-05-06T13:07:30.401Z,25.90
2023-05-06T13:09:57.835Z,25.70
2023-05-06T13:12:25.255Z,25.50
2023-05-06T13:14:52.644Z,25.20
2023-05-06T13:17:20.219Z,25.50
2023-05-06T13:19:47.717Z,25.60
2023-05-06T13:22:15.221Z,25.60
2023-05-06T13:24:42.872Z,25.80
2023-05-06T13:27:10.538Z,26.00
2023-05-06T13:29:38.276Z,26.30
2023-05-06T13:32:08.418Z,26.40
2023-05-06T13:34:36.618Z,26.40
2023-05-06T13:37:04.080Z,26.10
2023-05-06T13:39:31.572Z,26.30
2023-05-06T13:41:59.025Z,26.30
2023-05-06T13:44:26.947Z,26.20
2023-05-06T13:46:54.450Z,26.40
2023-05-06T13:49:21.964Z,26.70
2023-05-06T13:51:49.869Z,27.20
2023-05-06T13:54:17.324Z,27.00
2023-05-06T13:56:44.786Z,27.00
2023-05-06T13:59:13.990Z,27.40
2023-05-06T14:01:42.362Z,27.50
2023-05-06T14:04:09.821Z,27.30
2023-05-06T14:06:38.241Z,26.80
2023-05-06T14:09:05.735Z,27.20
2023-05-06T14:11:33.211Z,27.10
2023-05-06T14:14:00.636Z,26.90
2023-05-06T14:16:28.157Z,27.10
2023-05-06T14:18:55.655Z,27.10
2023-05-06T14:21:23.319Z,27.10
2023-05-06T14:23:50.771Z,26.90
2023-05-06T14:26:18.204Z,27.20
2023-05-06T14:28:45.709Z,27.20
2023-05-06T14:31:13.186Z,26.50
2023-05-06T14:33:40.673Z,27.00
2023-05-06T14:36:08.283Z,26.60
2023-05-06T14:38:35.917Z,26.70
2023-05-06T14:41:03.300Z,26.40
2023-05-06T14:43:30.766Z,26.60
2023-05-06T14:45:58.225Z,26.50
2023-05-06T14:48:25.642Z,26.60
2023-05-06T14:50:53.073Z,26.70
2023-05-06T14:53:20.504Z,26.50
2023-05-06T14:55:48.914Z,26.20
2023-05-06T14:58:16.424Z,26.20
2023-05-06T15:00:44.760Z,26.30
2023-05-06T15:03:12.180Z,26.20
2023-05-06T15:05:39.771Z,26.10
2023-05-06T15:08:07.343Z,26.00
2023-05-06T15:10:34.728Z,25.90
2023-05-06T15:13:02.265Z,25.70
2023-05-06T15:15:29.760Z,25.90
2023-05-06T15:17:57.228Z,25.90
2023-05-06T15:20:24.616Z,26.20
2023-05-06T15:22:52.041Z,26.40
2023-05-06T15:25:33.561Z,26.50
2023-05-06T15:28:02.084Z,26.30
2023-05-06T15:30:29.542Z,26.30
2023-05-06T15:32:57.106Z,26.30
2023-05-06T15:35:24.460Z,26.20
2023-05-06T15:37:58.656Z,26.30
2023-05-06T15:40:26.809Z,26.20
2023-05-06T15:42:54.293Z,26.40
2023-05-06T15:45:22.247Z,26.40
2023-05-06T15:47:49.798Z,26.50
2023-05-06T15:50:32.078Z,26.80
2023-05-06T15:53:01.507Z,26.80
2023-05-06T15:55:29.533Z,26.50
2023-05-06T15:57:59.833Z,26.30
2023-05-06T16:00:28.110Z,26.50
2023-05-06T16:02:55.589Z,26.10
2023-05-06T16:05:23.064Z,25.90
2023-05-06T16:07:50.716Z,26.10
2023-05-06T16:10:18.136Z,26.20
2023-05-06T16:12:45.972Z,26.10
2023-05-06T16:15:13.379Z,26.10
2023-05-06T16:17:40.859Z,25.90
2023-05-06T16:20:10.494Z,26.10
2023-05-06T16:22:40.013Z,25.90
2023-05-06T16:25:07.858Z,26.10
2023-05-06T16:27:35.571Z,25.90
2023-05-06T16:30:03.120Z,25.60
2023-05-06T16:32:30.529Z,25.60
2023-05-06T16:34:59.354Z,25.60
2023-05-06T16:37:28.272Z,25.70
2023-05-06T16:39:55.984Z,25.40
2023-05-06T16:42:23.367Z,25.40
2023-05-06T16:44:51.661Z,25.60
2023-05-06T16:47:23.543Z,25.40
2023-05-06T16:49:51.158Z,25.20
2023-05-06T16:52:19.132Z,25.20
2023-05-06T16:54:46.500Z,25.20
2023-05-06T16:57:13.951Z,25.00
2023-05-06T16:59:41.308Z,25.00
2023-05-06T17:02:08.777Z,24.80
2023-05-06T17:04:37.629Z,25.00
2023-05-06T17:07:05.641Z,25.00
2023-05-06T17:09:33.044Z,24.70
2023-05-06T17:12:00.889Z,24.80
2023-05-06T17:14:28.286Z,24.90
2023-05-06T17:16:56.282Z,24.60
2023-05-06T17:19:23.760Z,24.80
2023-05-06T17:21:51.145Z,24.70
2023-05-06T17:24:18.500Z,24.50
2023-05-06T17:26:46.097Z,24.70
2023-05-06T17:29:13.722Z,24.60
2023-05-06T17:31:41.113Z,24.40
2023-05-06T17:34:08.509Z,24.50
2023-05-06T17:36:35.883Z,24.30
2023-05-06T17:39:05.046Z,24.20
2023-05-06T17:41:33.469Z,24.40
2023-05-06T17:44:01.074Z,24.20
2023-05-06T17:46:28.552Z,24.30
2023-05-06T17:48:55.961Z,24.30
2023-05-06T17:51:23.412Z,24.10
2023-05-06T17:53:51.129Z,24.10
2023-05-06T17:56:20.181Z,24.00
2023-05-06T17:58:47.979Z,23.90
2023-05-06T18:01:15.587Z,24.00
2023-05-06T18:03:44.009Z,24.00
2023-05-06T18:06:12.549Z,23.90
2023-05-06T18:08:39.964Z,23.70
2023-05-06T18:11:07.374Z,23.60
2023-05-06T18:13:36.611Z,23.50
2023-05-06T18:16:04.792Z,23.60
2023-05-06T18:18:32.308Z,23.50
2023-05-06T18:20:59.742Z,23.40
2023-05-06T18:23:27.133Z,23.00
2023-05-06T18:25:54.491Z,23.00
2023-05-06T18:28:22.004Z,23.20
2023-05-06T18:30:49.418Z,23.10
2023-05-06T18:33:16.916Z,23.00
2023-05-06T18:35:44.298Z,22.80
2023-05-06T18:38:12.955Z,22.80
2023-05-06T18:40:41.131Z,22.80
2023-05-06T18:43:08.696Z,22.90
2023-05-06T18:45:36.203Z,22.60
2023-05-06T18:48:04.341Z,22.60
2023-05-06T18:50:31.811Z,22.70
2023-05-06T18:52:59.189Z,22.60
2023-05-06T18:55:26.713Z,22.50
2023-05-06T18:57:54.163Z,22.20
2023-05-06T19:00:22.496Z,21.90
2023-05-06T19:02:50.100Z,21.50
2023-05-06T19:05:17.889Z,21.00
2023-05-06T19:07:45.486Z,20.90
2023-05-06T19:10:13.873Z,20.80
2023-05-06T19:12:41.710Z,20.60
2023-05-06T19:15:12.139Z,20.30
2023-05-06T19:17:39.890Z,20.20
2023-05-06T19:20:08.225Z,20.20
2023-05-06T19:22:35.869Z,20.60
2023-05-06T19:25:03.353Z,21.00
2023-05-06T19:27:30.709Z,21.20
2023-05-06T19:29:58.165Z,21.40
2023-05-06T19:32:25.592Z,21.70
2023-05-06T19:34:52.988Z,21.60
2023-05-06T19:37:20.401Z,21.60
2023-05-06T19:39:49.591Z,21.70
2023-05-06T19:42:16.998Z,21.70
2023-05-06T19:44:44.392Z,21.70
2023-05-06T19:47:13.266Z,21.60
2023-05-06T19:49:40.726Z,21.60
2023-05-06T19:52:08.125Z,21.50
2023-05-06T19:54:35.619Z,21.50
2023-05-06T19:57:03.132Z,21.50
2023-05-06T19:59:30.572Z,21.50
2023-05-06T20:02:01.673Z,21.40
2023-05-06T20:04:29.171Z,21.30
2023-05-06T20:06:57.887Z,21.40
2023-05-06T20:09:25.293Z,21.10
2023-05-06T20:11:52.744Z,20.80
2023-05-06T20:14:20.163Z,20.70
2023-05-06T20:16:47.669Z,20.70
2023-05-06T20:19:15.090Z,20.80
2023-05-06T20:21:42.462Z,20.50
2023-05-06T20:24:09.837Z,20.50
2023-05-06T20:26:37.243Z,20.40
2023-05-06T20:29:04.651Z,20.50
2023-05-06T20:31:32.101Z,20.40
2023-05-06T20:33:59.558Z,20.50
2023-05-06T20:36:27.266Z,20.50
2023-05-06T20:38:54.685Z,20.30
2023-05-06T20:41:22.208Z,20.30
2023-05-06T20:43:52.896Z,20.30
2023-05-06T20:46:20.726Z,20.30
2023-05-06T20:48:48.334Z,20.20
2023-05-06T20:51:16.073Z,20.20
2023-05-06T20:53:43.616Z,20.20
2023-05-06T20:56:20.277Z,19.90
2023-05-06T20:58:48.006Z,20.10
2023-05-06T21:01:16.449Z,19.90
2023-05-06T21:03:46.355Z,20.00
2023-05-06T21:06:17.582Z,19.90
2023-05-06T21:08:46.380Z,19.90
2023-05-06T21:11:14.296Z,19.80
2023-05-06T21:13:41.894Z,20.00
2023-05-06T21:16:09.413Z,19.80
2023-05-06T21:18:37.015Z,19.70
2023-05-06T21:21:04.451Z,19.80
2023-05-06T21:23:32.534Z,19.90
2023-05-06T21:26:00.476Z,19.60
2023-05-06T21:28:27.891Z,19.80
2023-05-06T21:30:55.513Z,19.60
2023-05-06T21:33:22.969Z,19.80
2023-05-06T21:35:50.394Z,19.70
2023-05-06T21:38:17.788Z,19.60
2023-05-06T21:40:45.220Z,19.40
2023-05-06T21:43:12.811Z,19.40
2023-05-06T21:45:40.293Z,19.60
2023-05-06T21:48:07.824Z,19.40
2023-05-06T21:50:37.097Z,19.40
2023-05-06T21:53:04.659Z,19.50
2023-05-06T21:55:32.042Z,19.40
2023-05-06T21:57:59.502Z,19.30
2023-05-06T22:00:28.151Z,19.30
2023-05-06T22:02:55.945Z,19.20
2023-05-06T22:05:23.486Z,19.20
2023-05-06T22:07:51.018Z,19.10
2023-05-06T22:10:18.441Z,19.10
2023-05-06T22:12:45.865Z,19.10
2023-05-06T22:15:14.788Z,18.90
2023-05-06T22:17:42.414Z,18.80
2023-05-06T22:20:13.489Z,18.90
2023-05-06T22:22:40.899Z,18.90
2023-05-06T22:25:09.003Z,18.70
2023-05-06T22:27:36.777Z,18.80
2023-05-06T22:30:04.512Z,18.90
2023-05-06T22:32:32.513Z,18.80
2023-05-06T22:35:00.535Z,18.70
2023-05-06T22:37:28.090Z,18.80
2023-05-06T22:39:58.265Z,18.80
2023-05-06T22:42:25.734Z,18.60
2023-05-06T22:44:53.341Z,18.80
2023-05-06T22:47:20.875Z,18.50
2023-05-06T22:49:48.351Z,18.60
2023-05-06T22:52:16.783Z,18.60
2023-05-06T22:54:44.481Z,18.50
2023-05-06T22:57:12.033Z,18.50
2023-05-06T22:59:39.544Z,18.50
2023-05-06T23:02:06.926Z,18.50
2023-05-06T23:04:34.420Z,18.40
2023-05-06T23:07:02.173Z,18.60
2023-05-06T23:09:29.688Z,18.50
2023-05-06T23:11:57.037Z,18.60
2023-05-06T23:14:24.501Z,18.50
2023-05-06T23:16:51.927Z,18.40
2023-05-06T23:19:21.449Z,18.00
2023-05-06T23:21:48.953Z,17.70
2023-05-06T23:24:16.374Z,17.40
2023-05-06T23:26:43.746Z,17.50
2023-05-06T23:29:11.136Z,17.80
2023-05-06T23:31:38.519Z,18.00
2023-05-06T23:34:05.918Z,18.00
2023-05-06T23:36:34.100Z,17.80
2023-05-06T23:39:01.473Z,17.40
2023-05-06T23:41:28.818Z,17.60
2023-05-06T23:43:56.176Z,17.60
2023-05-06T23:46:23.678Z,17.90
2023-05-06T23:48:51.082Z,17.90
2023-05-06T23:51:18.449Z,18.10
2023-05-06T23:53:46.000Z,18.20
2023-05-06T23:56:13.424Z,18.20
2023-05-06T23:58:40.834Z,18.30
